| time (UTC) | temp C | wind direction | speed KPH | gust KPH | rain 1hr cm | rain 24hr cm | rain mn cm | humidity % | barometer mb |
| 20260507231438 | 18 | 143 | 6.4 | 9.7 | 0.00 | 0.00 | 0.00 | 36 | 984.9 |
| 20260507230935 | 18 | 174 | 3.2 | 4.8 | 0.00 | 0.00 | 0.00 | 36 | 984.6 |
| 20260507230432 | 18 | 159 | 8.0 | 11.3 | 0.00 | 0.00 | 0.00 | 36 | 984.6 |
| 20260507225932 | 18 | 214 | 3.2 | 6.4 | 0.00 | 0.00 | 0.00 | 37 | 984.8 |
| 20260507225428 | 18 | 179 | 11.3 | 17.7 | 0.00 | 0.00 | 0.00 | 36 | 984.7 |
| 20260507224925 | 18 | 169 | 6.4 | 6.4 | 0.00 | 0.00 | 0.00 | 35 | 984.2 |
| 20260507224420 | 18 | 169 | 6.4 | 6.4 | 0.00 | 0.00 | 0.00 | 35 | 984.2 |
| 20260507223918 | 19 | 217 | 3.2 | 3.2 | 0.00 | 0.00 | 0.00 | 37 | 984.2 |
| 20260507223414 | 19 | 196 | 1.6 | 1.6 | 0.00 | 0.00 | 0.00 | 36 | 984.1 |
| 20260507222911 | 19 | 196 | 1.6 | 1.6 | 0.00 | 0.00 | 0.00 | 36 | 984.0 |
| 20260507222408 | 19 | 180 | 1.6 | 3.2 | 0.00 | 0.00 | 0.00 | 36 | 984.0 |
| 20260507221904 | 19 | 158 | 6.4 | 9.7 | 0.00 | 0.00 | 0.00 | 35 | 984.1 |
| 20260507221401 | 19 | 158 | 6.4 | 11.3 | 0.00 | 0.00 | 0.00 | 35 | 983.8 |
| 20260507220856 | 19 | 185 | 4.8 | 9.7 | 0.00 | 0.00 | 0.00 | 35 | 983.9 |
| 20260507220355 | 19 | 157 | 4.8 | 6.4 | 0.00 | 0.00 | 0.00 | 35 | 983.8 |
| 20260507215851 | 19 | 183 | 6.4 | 9.7 | 0.00 | 0.00 | 0.00 | 36 | 983.6 |
| 20260507215348 | 20 | 137 | 4.8 | 6.4 | 0.00 | 0.00 | 0.00 | 35 | 983.6 |
| 20260507214845 | 20 | 226 | 4.8 | 6.4 | 0.00 | 0.00 | 0.00 | 35 | 983.6 |
| 20260507214343 | 20 | 212 | 4.8 | 6.4 | 0.00 | 0.00 | 0.00 | 35 | 983.8 |
| 20260507213843 | 20 | 197 | 3.2 | 9.7 | 0.00 | 0.00 | 0.00 | 36 | 983.5 |
| 20260507213341 | 20 | 200 | 4.8 | 6.4 | 0.00 | 0.00 | 0.00 | 35 | 983.3 |
| 20260507212837 | 20 | 194 | 3.2 | 6.4 | 0.00 | 0.00 | 0.00 | 36 | 983.5 |
| 20260507212333 | 20 | 155 | 6.4 | 6.4 | 0.00 | 0.00 | 0.00 | 35 | 983.5 |
| 20260507211830 | 20 | 142 | 6.4 | 9.7 | 0.00 | 0.00 | 0.00 | 35 | 983.2 |
| 20260507211327 | 20 | 230 | 1.6 | 1.6 | 0.00 | 0.00 | 0.00 | 38 | 983.4 |
| 20260507210824 | 20 | 186 | 3.2 | 12.9 | 0.00 | 0.00 | 0.00 | 36 | 983.5 |
| 20260507210321 | 20 | 210 | 4.8 | 6.4 | 0.00 | 0.00 | 0.00 | 37 | 983.3 |
| 20260507205817 | 19 | 197 | 3.2 | 3.2 | 0.00 | 0.00 | 0.00 | 39 | 983.5 |
| 20260507205314 | 20 | 208 | 4.8 | 6.4 | 0.00 | 0.00 | 0.00 | 38 | 983.7 |
| 20260507204810 | 20 | 186 | 4.8 | 6.4 | 0.00 | 0.00 | 0.00 | 38 | 983.4 |
| 20260507204308 | 20 | 215 | 3.2 | 3.2 | 0.00 | 0.00 | 0.00 | 37 | 983.4 |
| 20260507203806 | 20 | 217 | 1.6 | 11.3 | 0.00 | 0.00 | 0.00 | 38 | 983.4 |
| 20260507203303 | 19 | 173 | 1.6 | 6.4 | 0.00 | 0.00 | 0.00 | 42 | 983.4 |
| 20260507202759 | 19 | 134 | 0.0 | 1.6 | 0.00 | 0.00 | 0.00 | 44 | 983.3 |
| 20260507202255 | 19 | 101 | 1.6 | 1.6 | 0.00 | 0.00 | 0.00 | 43 | 983.5 |
| 20260507201750 | 20 | 117 | 1.6 | 1.6 | 0.00 | 0.00 | 0.00 | 43 | 983.6 |
| 20260507201247 | 20 | 195 | 1.6 | 1.6 | 0.00 | 0.00 | 0.00 | 43 | 983.5 |
| 20260507200743 | 20 | 80 | 1.6 | 3.2 | 0.00 | 0.00 | 0.00 | 44 | 983.7 |
| 20260507200239 | 20 | 53 | 0.0 | 3.2 | 0.00 | 0.00 | 0.00 | 42 | 983.5 |
| 20260507195735 | 20 | 304 | 0.0 | 1.6 | 0.00 | 0.00 | 0.00 | 40 | 983.5 |
| 20260507195233 | 20 | 4 | 1.6 | 3.2 | 0.00 | 0.00 | 0.00 | 44 | 983.4 |
| 20260507194730 | 20 | 300 | 1.6 | 9.7 | 0.00 | 0.00 | 0.00 | 42 | 983.7 |
| 20260507194226 | 19 | 270 | 3.2 | 9.7 | 0.00 | 0.00 | 0.00 | 43 | 983.8 |
| 20260507193723 | 20 | 316 | 6.4 | 6.4 | 0.00 | 0.00 | 0.00 | 40 | 983.7 |
| 20260507193220 | 20 | 243 | 1.6 | 4.8 | 0.00 | 0.00 | 0.00 | 41 | 984.0 |
| 20260507192716 | 20 | 258 | 3.2 | 6.4 | 0.00 | 0.00 | 0.00 | 41 | 984.2 |
| 20260507192213 | 20 | 196 | 3.2 | 9.7 | 0.00 | 0.00 | 0.00 | 41 | 984.3 |
| 20260507191708 | 20 | 190 | 8.0 | 11.3 | 0.00 | 0.00 | 0.00 | 41 | 984.5 |
| 20260507191206 | 20 | 95 | 1.6 | 4.8 | 0.00 | 0.00 | 0.00 | 41 | 984.1 |
| 20260507190703 | 20 | 70 | 1.6 | 4.8 | 0.00 | 0.00 | 0.00 | 43 | 984.2 |
| 20260507190201 | 20 | 179 | 3.2 | 4.8 | 0.00 | 0.00 | 0.00 | 42 | 984.2 |
| 20260507185700 | 20 | 125 | 3.2 | 6.4 | 0.00 | 0.00 | 0.00 | 43 | 984.4 |
| 20260507185156 | 19 | 273 | 1.6 | 1.6 | 0.00 | 0.00 | 0.00 | 43 | 984.5 |
| 20260507184654 | 19 | 221 | 1.6 | 6.4 | 0.00 | 0.00 | 0.00 | 46 | 984.5 |
| 20260507184151 | 19 | 312 | 0.0 | 6.4 | 0.00 | 0.00 | 0.00 | 43 | 984.7 |
| 20260507183647 | 19 | 359 | 0.0 | 1.6 | 0.00 | 0.00 | 0.00 | 47 | 984.6 |
| 20260507183145 | 19 | 70 | 1.6 | 3.2 | 0.00 | 0.00 | 0.00 | 45 | 984.7 |
| 20260507182642 | 19 | 87 | 0.0 | 3.2 | 0.00 | 0.00 | 0.00 | 43 | 984.9 |
| 20260507182137 | 19 | 90 | 1.6 | 6.4 | 0.00 | 0.00 | 0.00 | 47 | 984.8 |
| 20260507181634 | 19 | 300 | 1.6 | 4.8 | 0.00 | 0.00 | 0.00 | 43 | 984.9 |
| 20260507181130 | 20 | 139 | 3.2 | 6.4 | 0.00 | 0.00 | 0.00 | 45 | 984.9 |
| 20260507180626 | 19 | 246 | 0.0 | 3.2 | 0.00 | 0.00 | 0.00 | 44 | 984.9 |
| 20260507180124 | 18 | 170 | 3.2 | 3.2 | 0.00 | 0.00 | 0.00 | 46 | 985.1 |
| 20260507175619 | 18 | 27 | 0.0 | 6.4 | 0.00 | 0.00 | 0.00 | 52 | 985.1 |
| 20260507175117 | 18 | 105 | 0.0 | 3.2 | 0.00 | 0.00 | 0.00 | 47 | 985.4 |
| 20260507174614 | 18 | 93 | 1.6 | 3.2 | 0.00 | 0.00 | 0.00 | 46 | 985.5 |
| 20260507174112 | 18 | 75 | 3.2 | 3.2 | 0.00 | 0.00 | 0.00 | 45 | 985.5 |
| 20260507173609 | 17 | 318 | 1.6 | 4.8 | 0.00 | 0.00 | 0.00 | 48 | 985.5 |
| 20260507173106 | 17 | 35 | 3.2 | 3.2 | 0.00 | 0.00 | 0.00 | 49 | 985.7 |
| 20260507172602 | 17 | 33 | 8.0 | 11.3 | 0.00 | 0.00 | 0.00 | 48 | 985.8 |
| 20260507172100 | 17 | 178 | 3.2 | 6.4 | 0.00 | 0.00 | 0.00 | 46 | 986.2 |
| 20260507171600 | 17 | 262 | 6.4 | 9.7 | 0.00 | 0.00 | 0.00 | 48 | 986.1 |
| 20260507171057 | 17 | 303 | 3.2 | 6.4 | 0.00 | 0.00 | 0.00 | 49 | 986.2 |
| 20260507170554 | 16 | 293 | 1.6 | 4.8 | 0.00 | 0.00 | 0.00 | 50 | 986.0 |
| 20260507170051 | 17 | 237 | 6.4 | 9.7 | 0.00 | 0.00 | 0.00 | 48 | 986.1 |
| 20260507165547 | 17 | 275 | 4.8 | 9.7 | 0.00 | 0.00 | 0.00 | 47 | 986.3 |
| 20260507165044 | 18 | 75 | 4.8 | 6.4 | 0.00 | 0.00 | 0.00 | 46 | 986.2 |
| 20260507164540 | 17 | 66 | 0.0 | 1.6 | 0.00 | 0.00 | 0.00 | 51 | 986.3 |
| 20260507164037 | 17 | 19 | 1.6 | 1.6 | 0.00 | 0.00 | 0.00 | 49 | 986.4 |
| 20260507163534 | 17 | 53 | 6.4 | 9.7 | 0.00 | 0.00 | 0.00 | 49 | 986.5 |
| 20260507163033 | 17 | 30 | 1.6 | 3.2 | 0.00 | 0.00 | 0.00 | 48 | 986.9 |
| 20260507162532 | 16 | 320 | 3.2 | 4.8 | 0.00 | 0.00 | 0.00 | 51 | 986.9 |
| 20260507162029 | 16 | 320 | 3.2 | 4.8 | 0.00 | 0.00 | 0.00 | 51 | 987.0 |
| 20260507161525 | 16 | 317 | 4.8 | 4.8 | 0.00 | 0.00 | 0.00 | 50 | 987.1 |
| 20260507161023 | 16 | 329 | 3.2 | 3.2 | 0.00 | 0.00 | 0.00 | 49 | 987.4 |
| 20260507160518 | 16 | 347 | 3.2 | 4.8 | 0.00 | 0.00 | 0.00 | 51 | 987.2 |
| 20260507160015 | 15 | 260 | 1.6 | 1.6 | 0.00 | 0.00 | 0.00 | 52 | 987.2 |
| 20260507155510 | 15 | 260 | 1.6 | 1.6 | 0.00 | 0.00 | 0.00 | 52 | 987.0 |
| 20260507155008 | 15 | 265 | 3.2 | 9.7 | 0.00 | 0.00 | 0.00 | 52 | 987.3 |
| 20260507154504 | 15 | 315 | 8.0 | 11.3 | 0.00 | 0.00 | 0.00 | 52 | 987.3 |
| 20260507154001 | 15 | 185 | 4.8 | 6.4 | 0.00 | 0.00 | 0.00 | 50 | 987.5 |
| 20260507153458 | 15 | 212 | 1.6 | 3.2 | 0.00 | 0.00 | 0.00 | 52 | 987.2 |
| 20260507152954 | 15 | 326 | 6.4 | 6.4 | 0.00 | 0.00 | 0.00 | 53 | 987.6 |
| 20260507152451 | 15 | 317 | 3.2 | 4.8 | 0.00 | 0.00 | 0.00 | 53 | 987.8 |
| 20260507151947 | 15 | 330 | 6.4 | 11.3 | 0.00 | 0.00 | 0.00 | 52 | 987.8 |
| 20260507151443 | 15 | 216 | 3.2 | 11.3 | 0.00 | 0.00 | 0.00 | 57 | 987.9 |
| 20260507150940 | 14 | 31 | 3.2 | 4.8 | 0.00 | 0.00 | 0.00 | 57 | 988.0 |
| 20260507150437 | 13 | 32 | 1.6 | 6.4 | 0.00 | 0.00 | 0.00 | 57 | 987.9 |
| 20260507145933 | 13 | 313 | 3.2 | 4.8 | 0.00 | 0.00 | 0.00 | 59 | 987.9 |
| 20260507145429 | 13 | 334 | 4.8 | 6.4 | 0.00 | 0.00 | 0.00 | 59 | 987.9 |
| 20260507144926 | 13 | 293 | 3.2 | 9.7 | 0.00 | 0.00 | 0.00 | 60 | 987.9 |
| 20260507144423 | 13 | 323 | 3.2 | 3.2 | 0.00 | 0.00 | 0.00 | 60 | 988.1 |
| 20260507143920 | 13 | 272 | 0.0 | 1.6 | 0.00 | 0.00 | 0.00 | 61 | 988.3 |
| 20260507143418 | 12 | 312 | 3.2 | 4.8 | 0.00 | 0.00 | 0.00 | 60 | 988.3 |
| 20260507142914 | 12 | 296 | 3.2 | 3.2 | 0.00 | 0.00 | 0.00 | 61 | 988.5 |
| 20260507142410 | 12 | 25 | 1.6 | 6.4 | 0.00 | 0.00 | 0.00 | 62 | 988.5 |
| 20260507141907 | 12 | 263 | 4.8 | 4.8 | 0.00 | 0.00 | 0.00 | 62 | 988.6 |
| 20260507141403 | 12 | 247 | 3.2 | 11.3 | 0.00 | 0.00 | 0.00 | 61 | 988.7 |
| 20260507140900 | 12 | 291 | 3.2 | 4.8 | 0.00 | 0.00 | 0.00 | 64 | 988.5 |
| 20260507140357 | 12 | 199 | 0.0 | 4.8 | 0.00 | 0.00 | 0.00 | 65 | 988.6 |
| 20260507135854 | 12 | 266 | 3.2 | 4.8 | 0.00 | 0.00 | 0.00 | 65 | 988.8 |
| 20260507135351 | 12 | 280 | 6.4 | 9.7 | 0.00 | 0.00 | 0.00 | 66 | 988.7 |
| 20260507134849 | 12 | 296 | 3.2 | 6.4 | 0.00 | 0.00 | 0.00 | 66 | 988.9 |
| 20260507134344 | 11 | 265 | 4.8 | 9.7 | 0.00 | 0.00 | 0.00 | 65 | 988.7 |
| 20260507133841 | 12 | 280 | 8.0 | 9.7 | 0.00 | 0.00 | 0.00 | 65 | 988.8 |
| 20260507133336 | 12 | 287 | 1.6 | 1.6 | 0.00 | 0.00 | 0.00 | 68 | 988.9 |
| 20260507132835 | 12 | 264 | 4.8 | 4.8 | 0.00 | 0.00 | 0.00 | 68 | 988.9 |
| 20260507132331 | 12 | 290 | 3.2 | 9.7 | 0.00 | 0.00 | 0.00 | 68 | 988.8 |
| 20260507131828 | 12 | 153 | 3.2 | 3.2 | 0.00 | 0.00 | 0.00 | 68 | 989.1 |
| 20260507131325 | 12 | 215 | 3.2 | 9.7 | 0.00 | 0.00 | 0.00 | 69 | 989.1 |
| 20260507130822 | 11 | 288 | 3.2 | 11.3 | 0.00 | 0.00 | 0.00 | 71 | 989.2 |
| 20260507130319 | 12 | 294 | 6.4 | 12.9 | 0.00 | 0.00 | 0.00 | 70 | 989.2 |
| 20260507125818 | 12 | 299 | 4.8 | 11.3 | 0.00 | 0.00 | 0.00 | 73 | 989.2 |
| 20260507125315 | 12 | 247 | 4.8 | 6.4 | 0.00 | 0.00 | 0.00 | 74 | 989.1 |
| 20260507124812 | 12 | 297 | 3.2 | 4.8 | 0.00 | 0.00 | 0.00 | 75 | 988.9 |
| 20260507124308 | 12 | 285 | 4.8 | 6.4 | 0.00 | 0.00 | 0.00 | 74 | 988.8 |
| 20260507123807 | 12 | 263 | 0.0 | 6.4 | 0.00 | 0.00 | 0.00 | 74 | 988.9 |
| 20260507123304 | 12 | 279 | 4.8 | 9.7 | 0.00 | 0.00 | 0.00 | 74 | 988.9 |
| 20260507122800 | 12 | 229 | 0.0 | 9.7 | 0.00 | 0.00 | 0.00 | 74 | 988.8 |
| 20260507122255 | 12 | 284 | 0.0 | 6.4 | 0.00 | 0.00 | 0.00 | 74 | 988.5 |
| 20260507121752 | 12 | 285 | 4.8 | 9.7 | 0.00 | 0.00 | 0.00 | 74 | 988.6 |
| 20260507121248 | 12 | 284 | 3.2 | 4.8 | 0.00 | 0.00 | 0.00 | 75 | 988.5 |
| 20260507120744 | 12 | 314 | 3.2 | 3.2 | 0.00 | 0.00 | 0.00 | 74 | 988.7 |
| 20260507120241 | 12 | 295 | 1.6 | 6.4 | 0.00 | 0.00 | 0.00 | 74 | 988.7 |
| 20260507115737 | 12 | 280 | 3.2 | 6.4 | 0.00 | 0.00 | 0.00 | 74 | 988.7 |
| 20260507115233 | 12 | 263 | 4.8 | 4.8 | 0.00 | 0.00 | 0.00 | 74 | 988.4 |
| 20260507114728 | 12 | 271 | 1.6 | 3.2 | 0.00 | 0.00 | 0.00 | 75 | 988.5 |
| 20260507114226 | 12 | 272 | 1.6 | 6.4 | 0.00 | 0.00 | 0.00 | 74 | 988.3 |
| 20260507113724 | 12 | 262 | 1.6 | 3.2 | 0.00 | 0.00 | 0.00 | 73 | 988.4 |
| 20260507113220 | 12 | 281 | 1.6 | 3.2 | 0.00 | 0.00 | 0.00 | 73 | 988.3 |
| 20260507112718 | 12 | 257 | 1.6 | 3.2 | 0.00 | 0.00 | 0.00 | 73 | 988.3 |
| 20260507112215 | 12 | 261 | 1.6 | 1.6 | 0.00 | 0.00 | 0.00 | 73 | 988.4 |
| 20260507111712 | 12 | 261 | 1.6 | 3.2 | 0.00 | 0.00 | 0.00 | 73 | 988.2 |
| 20260507111209 | 12 | 229 | 0.0 | 0.0 | 0.00 | 0.00 | 0.00 | 73 | 988.1 |
| 20260507110704 | 12 | 221 | 0.0 | 1.6 | 0.00 | 0.00 | 0.00 | 72 | 988.2 |
| 20260507110201 | 12 | 256 | 0.0 | 1.6 | 0.00 | 0.00 | 0.00 | 72 | 988.0 |
| 20260507105659 | 12 | 273 | 0.0 | 1.6 | 0.00 | 0.00 | 0.00 | 72 | 988.1 |
| 20260507105154 | 12 | 241 | 0.0 | 1.6 | 0.00 | 0.00 | 0.00 | 72 | 988.1 |
| 20260507104652 | 12 | 265 | 0.0 | 1.6 | 0.00 | 0.00 | 0.00 | 72 | 987.9 |
| 20260507104148 | 12 | 257 | 0.0 | 0.0 | 0.00 | 0.00 | 0.00 | 73 | 988.0 |
| 20260507103644 | 12 | 262 | 1.6 | 3.2 | 0.00 | 0.00 | 0.00 | 72 | 988.1 |
| 20260507103141 | 12 | 261 | 0.0 | 1.6 | 0.00 | 0.00 | 0.00 | 72 | 987.9 |
| 20260507102637 | 12 | 216 | 0.0 | 1.6 | 0.00 | 0.00 | 0.00 | 71 | 987.9 |
| 20260507102133 | 12 | 212 | 0.0 | 1.6 | 0.00 | 0.00 | 0.00 | 72 | 988.0 |
| 20260507101630 | 12 | 163 | 0.0 | 1.6 | 0.00 | 0.00 | 0.00 | 72 | 987.8 |
| 20260507101125 | 12 | 181 | 0.0 | 0.0 | 0.00 | 0.00 | 0.00 | 72 | 987.6 |
| 20260507100623 | 12 | 251 | 0.0 | 0.0 | 0.00 | 0.00 | 0.00 | 72 | 987.8 |
| 20260507100121 | 12 | 269 | 0.0 | 1.6 | 0.00 | 0.00 | 0.00 | 72 | 987.9 |
| 20260507095619 | 12 | 160 | 1.6 | 3.2 | 0.00 | 0.00 | 0.00 | 72 | 987.9 |
| 20260507095115 | 12 | 276 | 0.0 | 1.6 | 0.00 | 0.00 | 0.00 | 72 | 987.8 |
| 20260507094611 | 12 | 263 | 4.8 | 6.4 | 0.00 | 0.00 | 0.00 | 73 | 987.6 |
| 20260507094109 | 12 | 281 | 0.0 | 3.2 | 0.00 | 0.00 | 0.00 | 74 | 987.7 |
| 20260507093606 | 12 | 320 | 0.0 | 1.6 | 0.00 | 0.00 | 0.00 | 76 | 987.8 |
| 20260507093105 | 12 | 320 | 0.0 | 1.6 | 0.00 | 0.00 | 0.00 | 75 | 987.5 |
| 20260507092601 | 12 | 320 | 0.0 | 1.6 | 0.00 | 0.00 | 0.00 | 76 | 987.7 |
| 20260507092057 | 12 | 320 | 0.0 | 0.0 | 0.00 | 0.00 | 0.00 | 76 | 987.8 |
| 20260507091554 | 12 | 320 | 0.0 | 1.6 | 0.00 | 0.00 | 0.00 | 76 | 987.7 |
| 20260507091050 | 12 | 320 | 0.0 | 0.0 | 0.00 | 0.00 | 0.00 | 76 | 987.5 |
| 20260507090546 | -17 | 0.0 | 0.0 | 0.00 | 0.00 | 0.00 | 987.5 | ||
| 20260507090043 | 12 | 320 | 0.0 | 1.6 | 0.00 | 0.00 | 0.00 | 75 | 987.5 |
| 20260507085540 | 12 | 320 | 0.0 | 1.6 | 0.00 | 0.00 | 0.00 | 75 | 987.5 |
| 20260507085037 | -17 | 0.0 | 0.0 | 0.00 | 0.00 | 0.00 | 987.1 | ||
| 20260507084533 | -17 | 0.0 | 0.0 | 0.00 | 0.00 | 0.00 | 987.2 | ||
| 20260507084031 | -17 | 0.0 | 0.0 | 0.00 | 0.00 | 0.00 | 987.3 | ||
| 20260507083527 | -17 | 0.0 | 0.0 | 0.00 | 0.00 | 0.00 | 987.3 | ||
| 20260507083024 | -17 | 0.0 | 0.0 | 0.00 | 0.00 | 0.00 | 987.4 | ||
| 20260507082520 | -17 | 0.0 | 0.0 | 0.00 | 0.00 | 0.00 | 987.5 | ||
| 20260507082016 | -17 | 0.0 | 0.0 | 0.00 | 0.00 | 0.00 | 987.7 | ||
| 20260507081513 | -17 | 0.0 | 0.0 | 0.00 | 0.00 | 0.00 | 987.6 | ||
| 20260507081010 | -17 | 0.0 | 0.0 | 0.00 | 0.00 | 0.00 | 987.6 | ||
| 20260507080505 | -17 | 0.0 | 0.0 | 0.00 | 0.00 | 0.00 | 987.8 | ||
| 20260507080001 | -17 | 0.0 | 0.0 | 0.00 | 0.00 | 0.00 | 988.0 | ||
| 20260507075457 | -17 | 0.0 | 0.0 | 0.00 | 0.00 | 0.00 | 987.6 | ||
| 20260507074954 | 12 | 267 | 3.2 | 3.2 | 0.00 | 0.00 | 0.00 | 73 | 987.2 |
| 20260507074451 | 12 | 267 | 3.2 | 3.2 | 0.00 | 0.00 | 0.00 | 73 | 987.5 |
| 20260507073949 | -17 | 0.0 | 0.0 | 0.00 | 0.00 | 0.00 | 987.6 | ||
| 20260507073445 | -17 | 0.0 | 0.0 | 0.00 | 0.00 | 0.00 | 987.2 | ||
| 20260507072942 | -17 | 0.0 | 0.0 | 0.00 | 0.00 | 0.00 | 987.4 | ||
| 20260507072440 | 12 | 238 | 1.6 | 3.2 | 0.00 | 0.00 | 0.00 | 74 | 987.0 |
| 20260507071937 | 12 | 238 | 1.6 | 3.2 | 0.00 | 0.00 | 0.00 | 74 | 987.1 |
| 20260507071434 | 12 | 242 | 3.2 | 4.8 | 0.00 | 0.00 | 0.00 | 74 | 986.9 |
| 20260507070930 | 12 | 242 | 3.2 | 4.8 | 0.00 | 0.00 | 0.00 | 74 | 987.1 |
| 20260507070428 | 12 | 198 | 3.2 | 4.8 | 0.00 | 0.00 | 0.00 | 76 | 987.4 |
| 20260507065924 | 12 | 217 | 0.0 | 0.0 | 0.00 | 0.00 | 0.00 | 79 | 987.5 |
| 20260507065421 | 12 | 295 | 6.4 | 6.4 | 0.00 | 0.00 | 0.00 | 79 | 987.1 |
| 20260507064918 | 12 | 290 | 3.2 | 6.4 | 0.00 | 0.00 | 0.00 | 79 | 987.2 |
| 20260507064417 | 12 | 253 | 6.4 | 9.7 | 0.00 | 0.00 | 0.00 | 79 | 987.4 |
| 20260507063914 | 12 | 276 | 1.6 | 3.2 | 0.00 | 0.00 | 0.00 | 79 | 987.4 |
| 20260507063411 | 13 | 290 | 3.2 | 9.7 | 0.00 | 0.00 | 0.00 | 79 | 987.3 |
| 20260507062908 | 13 | 294 | 3.2 | 4.8 | 0.00 | 0.00 | 0.00 | 78 | 987.2 |
| 20260507062405 | 13 | 263 | 4.8 | 9.7 | 0.00 | 0.00 | 0.00 | 77 | 987.2 |
| 20260507061902 | 13 | 199 | 4.8 | 6.4 | 0.00 | 0.00 | 0.00 | 75 | 987.3 |
| 20260507061400 | 13 | 268 | 3.2 | 3.2 | 0.00 | 0.00 | 0.00 | 75 | 987.3 |
| 20260507060859 | 13 | 206 | 4.8 | 9.7 | 0.00 | 0.00 | 0.00 | 75 | 987.4 |
| 20260507060355 | 13 | 206 | 4.8 | 9.7 | 0.00 | 0.00 | 0.00 | 75 | 987.5 |
| 20260507055852 | 13 | 293 | 0.0 | 3.2 | 0.00 | 0.00 | 0.00 | 76 | 987.3 |
| 20260507055346 | 13 | 123 | 3.2 | 3.2 | 0.00 | 0.00 | 0.00 | 77 | 987.5 |
| 20260507054844 | 13 | 191 | 1.6 | 3.2 | 0.00 | 0.00 | 0.00 | 77 | 987.6 |
| 20260507054340 | 13 | 195 | 3.2 | 3.2 | 0.00 | 0.00 | 0.00 | 77 | 987.5 |
| 20260507053837 | 13 | 214 | 4.8 | 9.7 | 0.00 | 0.00 | 0.00 | 77 | 987.4 |
| 20260507053335 | 14 | 155 | 1.6 | 3.2 | 0.00 | 0.00 | 0.00 | 77 | 987.3 |
| 20260507052834 | -17 | 0.0 | 0.0 | 0.00 | 0.00 | 0.00 | 987.1 | ||
| 20260507052330 | 14 | 289 | 4.8 | 6.4 | 0.00 | 0.00 | 0.00 | 77 | 987.1 |
| 20260507051828 | 14 | 289 | 4.8 | 6.4 | 0.00 | 0.00 | 0.00 | 77 | 986.8 |
| 20260507051325 | 14 | 289 | 4.8 | 12.9 | 0.00 | 0.00 | 0.00 | 77 | 986.7 |
| 20260507050822 | 14 | 280 | 3.2 | 4.8 | 0.00 | 0.00 | 0.00 | 78 | 987.0 |
| 20260507050318 | 14 | 279 | 4.8 | 4.8 | 0.00 | 0.00 | 0.00 | 77 | 987.0 |
| 20260507045815 | 14 | 303 | 3.2 | 4.8 | 0.00 | 0.00 | 0.00 | 78 | 986.9 |
| 20260507045312 | 14 | 271 | 4.8 | 6.4 | 0.00 | 0.00 | 0.00 | 78 | 986.8 |
| 20260507044809 | 15 | 292 | 1.6 | 1.6 | 0.00 | 0.00 | 0.00 | 78 | 986.9 |
| 20260507044305 | 15 | 299 | 1.6 | 1.6 | 0.00 | 0.00 | 0.00 | 77 | 986.9 |
| 20260507043801 | 15 | 179 | 1.6 | 6.4 | 0.00 | 0.00 | 0.00 | 77 | 986.8 |
| 20260507043258 | 15 | 246 | 0.0 | 1.6 | 0.00 | 0.00 | 0.00 | 78 | 986.9 |
| 20260507042754 | 15 | 282 | 4.8 | 4.8 | 0.00 | 0.00 | 0.00 | 78 | 986.5 |
| 20260507042249 | 15 | 264 | 1.6 | 6.4 | 0.00 | 0.00 | 0.00 | 78 | 986.3 |
| 20260507041748 | 15 | 246 | 1.6 | 11.3 | 0.00 | 0.00 | 0.00 | 77 | 985.7 |
| 20260507041244 | 15 | 309 | 3.2 | 6.4 | 0.00 | 0.00 | 0.00 | 78 | 985.4 |
| 20260507040741 | 15 | 185 | 1.6 | 1.6 | 0.00 | 0.00 | 0.00 | 78 | 986.4 |
| 20260507040237 | 15 | 267 | 0.0 | 3.2 | 0.00 | 0.00 | 0.00 | 78 | 985.8 |
| 20260507035733 | 15 | 351 | 3.2 | 3.2 | 0.00 | 0.33 | 0.33 | 78 | 986.2 |
| 20260507035228 | 15 | 270 | 1.6 | 3.2 | 0.00 | 0.33 | 0.33 | 79 | 986.3 |
| 20260507034726 | 15 | 295 | 4.8 | 6.4 | 0.00 | 0.33 | 0.33 | 78 | 986.8 |
| 20260507034223 | 15 | 332 | 6.4 | 9.7 | 0.00 | 0.33 | 0.33 | 77 | 986.5 |
| 20260507033721 | 15 | 314 | 6.4 | 9.7 | 0.00 | 0.33 | 0.33 | 77 | 986.6 |
| 20260507033219 | 15 | 274 | 6.4 | 6.4 | 0.00 | 0.33 | 0.33 | 77 | 986.9 |
| 20260507032716 | 16 | 299 | 3.2 | 6.4 | 0.00 | 0.33 | 0.33 | 76 | 987.2 |
| 20260507032212 | 16 | 183 | 4.8 | 6.4 | 0.00 | 0.33 | 0.33 | 76 | 986.8 |
| 20260507031709 | 16 | 201 | 0.0 | 1.6 | 0.00 | 0.33 | 0.33 | 77 | 986.6 |
| 20260507031205 | 16 | 149 | 0.0 | 0.0 | 0.00 | 0.33 | 0.33 | 76 | 986.3 |
| 20260507030702 | 16 | 263 | 6.4 | 6.4 | 0.00 | 0.33 | 0.33 | 76 | 986.1 |
| 20260507030200 | 16 | 26 | 4.8 | 9.7 | 0.00 | 0.33 | 0.33 | 76 | 985.7 |
| 20260507025657 | 16 | 280 | 8.0 | 11.3 | 0.00 | 0.33 | 0.33 | 76 | 986.2 |
| 20260507025153 | 16 | 274 | 9.7 | 11.3 | 0.00 | 0.33 | 0.33 | 77 | 986.8 |
| 20260507024652 | 17 | 256 | 0.0 | 1.6 | 0.00 | 0.33 | 0.33 | 78 | 986.6 |
| 20260507024149 | 17 | 326 | 3.2 | 4.8 | 0.00 | 0.33 | 0.33 | 77 | 986.4 |
| 20260507023644 | 17 | 195 | 1.6 | 1.6 | 0.00 | 0.33 | 0.33 | 77 | 986.4 |
| 20260507023142 | 17 | 172 | 3.2 | 4.8 | 0.00 | 0.33 | 0.33 | 77 | 986.2 |
| 20260507022638 | 17 | 235 | 1.6 | 1.6 | 0.00 | 0.33 | 0.33 | 76 | 986.2 |
| 20260507022134 | 17 | 183 | 3.2 | 6.4 | 0.00 | 0.33 | 0.33 | 73 | 986.1 |
| 20260507021631 | 17 | 183 | 3.2 | 6.4 | 0.00 | 0.33 | 0.33 | 73 | 985.9 |
| 20260507021126 | 18 | 272 | 1.6 | 1.6 | 0.00 | 0.33 | 0.33 | 73 | 985.2 |
| 20260507020625 | 18 | 272 | 1.6 | 1.6 | 0.00 | 0.33 | 0.33 | 73 | 985.6 |
| 20260507020120 | 18 | 281 | 1.6 | 3.2 | 0.00 | 0.33 | 0.33 | 72 | 985.3 |
| 20260507015619 | 18 | 265 | 0.0 | 3.2 | 0.00 | 0.33 | 0.33 | 72 | 985.1 |
| 20260507015116 | 18 | 299 | 1.6 | 3.2 | 0.00 | 0.33 | 0.33 | 72 | 985.5 |
| 20260507014613 | 18 | 279 | 3.2 | 3.2 | 0.00 | 0.33 | 0.33 | 74 | 985.9 |
| 20260507014108 | 18 | 279 | 3.2 | 3.2 | 0.00 | 0.33 | 0.33 | 74 | 986.0 |
| 20260507013606 | 18 | 297 | 3.2 | 6.4 | 0.00 | 0.33 | 0.33 | 74 | 985.6 |
| 20260507013102 | 18 | 262 | 1.6 | 3.2 | 0.00 | 0.33 | 0.33 | 74 | 985.7 |
| 20260507012600 | 18 | 282 | 3.2 | 3.2 | 0.00 | 0.33 | 0.33 | 73 | 985.7 |
| 20260507012055 | 18 | 282 | 3.2 | 3.2 | 0.00 | 0.33 | 0.33 | 73 | 985.3 |
| 20260507011553 | 18 | 311 | 0.0 | 1.6 | 0.00 | 0.33 | 0.33 | 74 | 985.1 |
| 20260507011049 | 18 | 351 | 6.4 | 6.4 | 0.00 | 0.33 | 0.33 | 72 | 985.0 |
| 20260507010544 | 18 | 323 | 8.0 | 12.9 | 0.00 | 0.33 | 0.33 | 71 | 985.0 |
| 20260507010040 | 18 | 258 | 3.2 | 3.2 | 0.00 | 0.33 | 0.33 | 71 | 985.3 |
| 20260507005538 | 18 | 259 | 1.6 | 1.6 | 0.00 | 0.33 | 0.33 | 71 | 985.6 |
| 20260507005034 | -17 | 0.0 | 0.0 | 0.00 | 0.33 | 0.33 | 985.3 | ||
| 20260507004531 | -17 | 0.0 | 0.0 | 0.00 | 0.33 | 0.33 | 985.5 | ||
| 20260507004029 | 18 | 318 | 3.2 | 4.8 | 0.00 | 0.33 | 0.33 | 72 | 985.6 |
| 20260507003524 | 18 | 318 | 3.2 | 4.8 | 0.00 | 0.33 | 0.33 | 72 | 985.6 |
| 20260507003020 | 18 | 307 | 0.0 | 0.0 | 0.00 | 0.33 | 0.33 | 72 | 985.6 |
| 20260507002516 | 18 | 307 | 0.0 | 0.0 | 0.00 | 0.33 | 0.33 | 72 | 985.4 |
| 20260507002013 | 19 | 279 | 3.2 | 3.2 | 0.00 | 0.33 | 0.33 | 71 | 985.3 |
| 20260507001509 | 19 | 203 | 0.0 | 1.6 | 0.00 | 0.33 | 0.33 | 71 | 985.5 |
| 20260507001007 | 19 | 202 | 0.0 | 1.6 | 0.00 | 0.33 | 0.33 | 71 | 985.4 |
| 20260507000502 | 19 | 221 | 3.2 | 4.8 | 0.00 | 0.33 | 0.33 | 70 | 985.4 |
| 20260506235958 | 19 | 221 | 3.2 | 4.8 | 0.00 | 0.33 | 0.33 | 70 | 985.3 |
| 20260506235455 | 20 | 180 | 3.2 | 3.2 | 0.00 | 0.33 | 0.33 | 69 | 985.0 |
| 20260506234951 | 20 | 180 | 3.2 | 3.2 | 0.00 | 0.33 | 0.33 | 69 | 985.3 |
| 20260506234449 | 20 | 184 | 6.4 | 9.7 | 0.00 | 0.33 | 0.33 | 68 | 985.3 |
| 20260506233946 | 20 | 175 | 4.8 | 6.4 | 0.00 | 0.33 | 0.33 | 68 | 985.1 |
| 20260506233443 | 20 | 166 | 4.8 | 6.4 | 0.00 | 0.33 | 0.33 | 68 | 985.0 |
| 20260506232939 | 20 | 178 | 0.0 | 0.0 | 0.00 | 0.33 | 0.33 | 71 | 984.7 |
| 20260506232436 | 20 | 178 | 0.0 | 0.0 | 0.00 | 0.33 | 0.33 | 71 | 984.7 |
| 20260506231931 | -17 | 0.0 | 0.0 | 0.00 | 0.33 | 0.33 | 984.7 |